createdAt,value
2022-12-19T00:01:57.475Z,49.67
2022-12-19T00:04:24.271Z,46.85
2022-12-19T00:06:51.076Z,51.13
2022-12-19T00:09:17.844Z,46.60
2022-12-19T00:11:44.555Z,48.17
2022-12-19T00:14:12.016Z,42.67
2022-12-19T00:16:38.987Z,46.10
2022-12-19T00:19:06.321Z,46.70
2022-12-19T00:21:35.026Z,49.70
2022-12-19T00:24:03.033Z,41.22
2022-12-19T00:26:31.948Z,47.70
2022-12-19T00:29:06.770Z,45.33
2022-12-19T00:31:39.737Z,48.33
2022-12-19T00:34:08.677Z,45.28
2022-12-19T00:36:35.544Z,47.00
2022-12-19T00:39:05.684Z,46.88
2022-12-19T00:41:40.073Z,43.67
2022-12-19T00:44:17.013Z,44.67
2022-12-19T00:46:49.251Z,46.63
2022-12-19T00:49:19.729Z,42.53
2022-12-19T00:51:46.384Z,47.50
2022-12-19T00:54:13.050Z,44.60
2022-12-19T00:56:42.254Z,47.97
2022-12-19T00:59:10.563Z,48.08
2022-12-19T01:01:40.633Z,43.55
2022-12-19T01:04:31.236Z,44.00
2022-12-19T01:07:01.749Z,49.40
2022-12-19T01:09:30.358Z,49.13
2022-12-19T01:12:15.823Z,47.38
2022-12-19T01:14:42.597Z,49.28
2022-12-19T01:17:11.813Z,51.35
2022-12-19T01:19:43.665Z,51.92
2022-12-19T01:22:12.745Z,49.03
2022-12-19T01:24:39.731Z,50.90
2022-12-19T01:27:08.871Z,50.90
2022-12-19T01:29:37.701Z,55.08
2022-12-19T01:32:19.664Z,54.63
2022-12-19T01:34:48.514Z,48.65
2022-12-19T01:37:20.547Z,51.75
2022-12-19T01:39:47.600Z,53.88
2022-12-19T01:42:23.180Z,53.22
2022-12-19T01:45:11.100Z,51.67
2022-12-19T01:47:58.553Z,55.58
2022-12-19T01:50:58.444Z,49.50
2022-12-19T01:53:34.573Z,52.08
2022-12-19T01:56:08.965Z,50.33
2022-12-19T01:58:38.349Z,54.85
2022-12-19T02:01:07.824Z,52.10
2022-12-19T02:03:39.302Z,53.70
2022-12-19T02:06:08.448Z,51.22
2022-12-19T02:08:38.424Z,51.78
2022-12-19T02:11:05.278Z,49.80
2022-12-19T02:13:34.441Z,52.72
2022-12-19T02:16:16.115Z,51.15
2022-12-19T02:19:08.208Z,49.20
2022-12-19T02:21:57.207Z,54.65
2022-12-19T02:24:56.511Z,52.70
2022-12-19T02:27:52.878Z,49.63
2022-12-19T02:30:43.527Z,51.55
2022-12-19T02:33:34.567Z,45.58
2022-12-19T02:36:15.301Z,48.85
2022-12-19T02:38:58.080Z,42.00
2022-12-19T02:41:43.246Z,41.80
2022-12-19T02:44:19.619Z,40.80
2022-12-19T02:46:48.742Z,43.03
2022-12-19T02:49:21.338Z,39.90
2022-12-19T02:51:58.288Z,39.42
2022-12-19T02:54:25.566Z,36.38
2022-12-19T02:57:19.950Z,40.17
2022-12-19T03:00:05.274Z,36.28
2022-12-19T03:02:41.046Z,35.05
2022-12-19T03:05:54.668Z,41.90
2022-12-19T03:08:21.365Z,39.73
2022-12-19T03:11:00.921Z,35.97
2022-12-19T03:13:33.421Z,32.63
2022-12-19T03:16:02.092Z,34.20
2022-12-19T03:18:31.384Z,35.00
2022-12-19T03:21:10.983Z,33.95
2022-12-19T03:23:38.319Z,31.20
2022-12-19T03:26:14.500Z,33.75
2022-12-19T03:28:53.682Z,32.33
2022-12-19T03:31:24.581Z,30.92
2022-12-19T03:33:57.190Z,28.90
2022-12-19T03:36:33.282Z,30.38
2022-12-19T03:39:04.422Z,25.38
2022-12-19T03:41:50.342Z,29.23
2022-12-19T03:44:18.516Z,26.40
2022-12-19T03:46:54.034Z,24.23
2022-12-19T03:49:20.953Z,19.58
2022-12-19T03:52:04.793Z,22.77
2022-12-19T03:54:37.364Z,22.88
2022-12-19T03:57:23.061Z,24.27
2022-12-19T04:00:01.998Z,21.92
2022-12-19T04:02:29.816Z,22.75
2022-12-19T04:05:02.088Z,21.33
2022-12-19T04:07:29.065Z,21.88
2022-12-19T04:09:59.167Z,22.30
2022-12-19T04:12:32.116Z,22.67
2022-12-19T04:14:58.893Z,20.02
2022-12-19T04:17:29.954Z,20.63
2022-12-19T04:20:04.624Z,21.25
2022-12-19T04:22:43.889Z,19.15
2022-12-19T04:25:15.060Z,19.80
2022-12-19T04:27:46.960Z,19.80
2022-12-19T04:30:18.503Z,17.00
2022-12-19T04:32:46.613Z,20.67
2022-12-19T04:35:14.080Z,15.65
2022-12-19T04:37:43.615Z,16.48
2022-12-19T04:40:11.276Z,17.25
2022-12-19T04:42:38.001Z,17.27
2022-12-19T04:45:08.373Z,17.85
2022-12-19T04:47:37.676Z,18.58
2022-12-19T04:50:05.481Z,19.23
2022-12-19T04:52:34.343Z,19.27
2022-12-19T04:55:01.055Z,18.55
2022-12-19T04:57:31.580Z,20.67
2022-12-19T04:59:58.469Z,19.15
2022-12-19T05:02:25.783Z,20.02
2022-12-19T05:04:52.748Z,19.67
2022-12-19T05:07:21.897Z,20.80
2022-12-19T05:09:48.857Z,21.65
2022-12-19T05:12:17.756Z,21.80
2022-12-19T05:14:44.719Z,22.00
2022-12-19T05:17:11.588Z,25.50
2022-12-19T05:19:40.435Z,23.52
2022-12-19T05:22:07.137Z,23.48
2022-12-19T05:24:33.794Z,23.75
2022-12-19T05:27:00.505Z,24.25
2022-12-19T05:29:27.176Z,25.48
2022-12-19T05:31:53.839Z,25.63
2022-12-19T05:34:20.820Z,24.30
2022-12-19T05:36:47.697Z,25.17
2022-12-19T05:39:14.414Z,23.15
2022-12-19T05:41:41.387Z,22.80
2022-12-19T05:44:10.640Z,24.98
2022-12-19T05:46:37.552Z,19.83
2022-12-19T05:49:04.368Z,22.83
2022-12-19T05:51:31.684Z,22.17
2022-12-19T05:54:00.598Z,25.30
2022-12-19T05:56:29.942Z,23.75
2022-12-19T05:58:57.279Z,22.92
2022-12-19T06:01:26.838Z,25.50
2022-12-19T06:03:55.256Z,25.58
2022-12-19T06:06:24.664Z,21.17
2022-12-19T06:08:56.645Z,18.67
2022-12-19T06:11:23.779Z,23.73
2022-12-19T06:13:51.178Z,16.98
2022-12-19T06:16:21.352Z,20.70
2022-12-19T06:18:48.077Z,22.75
2022-12-19T06:21:22.877Z,21.02
2022-12-19T06:23:49.586Z,21.70
2022-12-19T06:26:19.956Z,23.40
2022-12-19T06:28:52.317Z,25.92
2022-12-19T06:31:21.355Z,23.63
2022-12-19T06:33:48.363Z,23.00
2022-12-19T06:36:26.328Z,22.75
2022-12-19T06:38:54.316Z,20.75
2022-12-19T06:41:39.968Z,19.98
2022-12-19T06:44:09.606Z,19.73
2022-12-19T06:46:37.881Z,17.20
2022-12-19T06:49:08.140Z,18.80
2022-12-19T06:51:35.232Z,18.95
2022-12-19T06:54:01.922Z,18.60
2022-12-19T06:56:33.889Z,16.48
2022-12-19T06:59:00.811Z,18.75
2022-12-19T07:01:47.129Z,16.20
2022-12-19T07:04:18.651Z,18.08
2022-12-19T07:06:49.017Z,18.10
2022-12-19T07:09:16.122Z,20.10
2022-12-19T07:11:42.823Z,19.05
2022-12-19T07:14:10.652Z,16.48
2022-12-19T07:16:37.966Z,16.30
2022-12-19T07:19:05.891Z,17.77
2022-12-19T07:21:35.962Z,15.63
2022-12-19T07:24:06.460Z,15.15
2022-12-19T07:26:35.371Z,17.23
2022-12-19T07:29:02.985Z,16.60
2022-12-19T07:31:29.730Z,15.77
2022-12-19T07:33:56.554Z,15.43
2022-12-19T07:36:23.402Z,14.82
2022-12-19T07:38:50.636Z,17.27
2022-12-19T07:41:17.654Z,13.68
2022-12-19T07:43:45.585Z,14.40
2022-12-19T07:46:14.659Z,18.00
2022-12-19T07:48:41.541Z,14.27
2022-12-19T07:51:08.221Z,16.42
2022-12-19T07:53:35.044Z,14.88
2022-12-19T07:56:01.815Z,16.13
2022-12-19T07:58:28.512Z,14.93
2022-12-19T08:01:00.855Z,13.20
2022-12-19T08:03:28.520Z,16.52
2022-12-19T08:06:00.328Z,15.52
2022-12-19T08:11:06.279Z,14.63
2022-12-19T08:13:39.659Z,15.05
2022-12-19T08:16:10.643Z,16.60
2022-12-19T08:18:37.516Z,19.27
2022-12-19T08:21:04.316Z,13.63
2022-12-19T08:23:30.989Z,14.50
2022-12-19T08:26:05.226Z,15.27
2022-12-19T08:28:35.782Z,14.57
2022-12-19T08:31:12.102Z,14.70
2022-12-19T08:33:39.291Z,14.50
2022-12-19T08:36:08.071Z,16.25
2022-12-19T08:38:35.751Z,15.65
2022-12-19T08:41:04.666Z,12.15
2022-12-19T08:43:32.031Z,18.20
2022-12-19T08:45:59.623Z,14.60
2022-12-19T08:48:27.058Z,11.05
2022-12-19T08:50:54.514Z,13.27
2022-12-19T08:53:26.331Z,11.45
2022-12-19T08:55:57.879Z,14.65
2022-12-19T08:58:25.541Z,14.57
2022-12-19T09:01:01.742Z,11.23
2022-12-19T09:03:42.808Z,13.18
2022-12-19T09:06:21.753Z,12.35
2022-12-19T09:08:48.532Z,11.85
2022-12-19T09:11:17.463Z,14.00
2022-12-19T09:13:44.998Z,11.75
2022-12-19T09:16:14.988Z,10.88
2022-12-19T09:18:48.229Z,11.85
2022-12-19T09:21:16.838Z,13.55
2022-12-19T09:23:49.071Z,11.95
2022-12-19T09:26:16.797Z,13.75
2022-12-19T09:28:47.465Z,13.88
2022-12-19T09:31:20.870Z,13.57
2022-12-19T09:33:47.944Z,11.57
2022-12-19T09:36:24.573Z,14.05
2022-12-19T09:38:54.558Z,12.35
2022-12-19T09:41:32.951Z,10.60
2022-12-19T09:44:27.987Z,9.77
2022-12-19T09:47:19.807Z,12.18
2022-12-19T09:49:48.215Z,12.05
2022-12-19T09:52:48.363Z,11.70
2022-12-19T09:55:23.944Z,11.13
2022-12-19T09:57:59.310Z,11.45
2022-12-19T10:00:41.519Z,9.35
2022-12-19T10:03:39.969Z,10.60
2022-12-19T10:07:10.474Z,13.60
2022-12-19T10:10:25.393Z,12.00
2022-12-19T10:12:43.722Z,9.43
2022-12-19T10:15:16.903Z,9.48
2022-12-19T10:18:06.172Z,10.35
2022-12-19T10:20:38.525Z,10.77
2022-12-19T10:23:32.951Z,10.63
2022-12-19T10:26:00.472Z,11.00
2022-12-19T10:28:29.626Z,8.95
2022-12-19T10:31:20.708Z,10.43
2022-12-19T10:34:16.634Z,13.18
2022-12-19T10:40:01.130Z,9.55
2022-12-19T10:42:52.573Z,9.38
2022-12-19T10:45:21.476Z,9.68
2022-12-19T10:47:51.678Z,10.30
2022-12-19T10:50:25.273Z,11.20
2022-12-19T10:53:07.478Z,10.50
2022-12-19T10:55:39.164Z,10.43
2022-12-19T10:58:20.373Z,11.98
2022-12-19T11:01:22.069Z,9.20
2022-12-19T11:03:53.441Z,10.05
2022-12-19T11:06:37.997Z,10.35
2022-12-19T11:09:27.646Z,8.32
2022-12-19T11:15:49.474Z,10.57
2022-12-19T11:20:41.816Z,8.40
2022-12-19T11:29:15.665Z,9.73
2022-12-19T11:29:25.173Z,11.30
2022-12-19T11:29:32.145Z,10.65
2022-12-19T11:30:48.179Z,9.95
2022-12-19T11:33:18.607Z,10.38
2022-12-19T11:35:58.548Z,9.40
2022-12-19T11:38:57.746Z,9.40
2022-12-19T11:41:41.438Z,11.13
2022-12-19T11:44:36.331Z,8.77
2022-12-19T11:47:33.085Z,10.40
2022-12-19T11:50:04.130Z,9.82
2022-12-19T11:55:51.125Z,11.05
2022-12-19T11:58:17.974Z,10.57
2022-12-19T12:00:58.430Z,10.30
2022-12-19T12:04:01.820Z,13.48
2022-12-19T12:06:36.347Z,10.85
2022-12-19T12:13:50.297Z,11.50
2022-12-19T12:20:50.669Z,10.02
2022-12-19T12:26:56.795Z,15.00
2022-12-19T12:31:15.728Z,10.43
2022-12-19T12:31:32.656Z,13.45
2022-12-19T12:31:49.432Z,9.68
2022-12-19T12:31:53.063Z,11.50
2022-12-19T12:35:33.276Z,10.40
2022-12-19T12:37:47.869Z,10.75
2022-12-19T12:38:46.969Z,9.32
2022-12-19T12:41:57.919Z,9.15
2022-12-19T12:44:33.371Z,8.90
2022-12-19T12:47:25.677Z,10.23
2022-12-19T12:52:32.734Z,9.98
2022-12-19T12:54:59.794Z,7.95
2022-12-19T12:57:30.110Z,10.55
2022-12-19T13:00:20.844Z,10.85
2022-12-19T13:03:02.095Z,7.50
2022-12-19T13:05:40.984Z,10.02
2022-12-19T13:08:32.643Z,8.07
2022-12-19T13:11:38.919Z,10.35
2022-12-19T13:14:26.211Z,9.35
2022-12-19T13:16:54.441Z,8.43
2022-12-19T13:19:28.486Z,8.50
2022-12-19T13:22:04.989Z,10.40
2022-12-19T13:24:41.454Z,8.60
2022-12-19T13:27:20.326Z,12.02
2022-12-19T13:30:12.369Z,8.60
2022-12-19T13:36:58.813Z,9.00
2022-12-19T13:40:02.078Z,9.05
2022-12-19T13:41:47.638Z,8.15
2022-12-19T13:44:18.076Z,8.98
2022-12-19T13:49:34.659Z,8.65
2022-12-19T13:52:04.344Z,7.85
2022-12-19T13:54:50.063Z,6.93
2022-12-19T13:57:28.701Z,7.70
2022-12-19T14:00:01.101Z,7.28
2022-12-19T14:02:43.873Z,9.32
2022-12-19T14:06:09.671Z,7.68
2022-12-19T14:08:21.449Z,8.48
2022-12-19T14:11:37.167Z,4.95
2022-12-19T14:14:10.253Z,8.60
2022-12-19T14:16:45.620Z,8.27
2022-12-19T14:19:24.487Z,8.18
2022-12-19T14:22:04.608Z,9.50
2022-12-19T14:24:38.821Z,8.50
2022-12-19T14:28:18.148Z,10.50
2022-12-19T14:30:28.625Z,6.07
2022-12-19T14:33:47.501Z,12.05
2022-12-19T14:36:11.378Z,26.73
2022-12-19T14:39:25.991Z,8.38
2022-12-19T14:41:47.267Z,9.45
2022-12-19T14:52:34.604Z,6.88
2022-12-19T14:53:51.146Z,6.20
2022-12-19T14:54:21.706Z,7.15
2022-12-19T14:54:49.391Z,5.63
2022-12-19T14:56:50.550Z,9.02
2022-12-19T14:59:22.196Z,6.93
2022-12-19T15:01:54.006Z,8.70
2022-12-19T15:04:52.155Z,7.43
2022-12-19T15:07:29.311Z,6.15
2022-12-19T15:11:07.184Z,7.68
2022-12-19T15:14:51.744Z,8.60
2022-12-19T15:16:05.263Z,7.82
2022-12-19T15:18:42.567Z,27.63
2022-12-19T15:21:14.596Z,9.85
2022-12-19T15:23:44.300Z,9.05
2022-12-19T15:26:35.372Z,9.60
2022-12-19T15:29:07.117Z,13.70
2022-12-19T15:34:34.875Z,6.18
2022-12-19T15:37:02.914Z,7.05
2022-12-19T15:39:30.252Z,8.02
2022-12-19T15:42:01.009Z,8.35
2022-12-19T15:44:43.501Z,5.82
2022-12-19T15:47:32.097Z,8.60
2022-12-19T15:50:02.873Z,8.07
2022-12-19T15:52:30.054Z,8.75
2022-12-19T15:54:57.375Z,8.75
2022-12-19T15:57:30.355Z,10.27
2022-12-19T15:59:58.816Z,7.80
2022-12-19T16:02:42.677Z,8.85
2022-12-19T16:05:14.528Z,8.80
2022-12-19T16:07:41.300Z,6.00
2022-12-19T16:10:11.041Z,8.45
2022-12-19T16:12:41.361Z,8.80
2022-12-19T16:15:32.939Z,9.60
2022-12-19T16:18:01.520Z,9.93
2022-12-19T16:20:37.620Z,7.57
2022-12-19T16:23:04.368Z,8.40
2022-12-19T16:25:46.613Z,8.93
2022-12-19T16:28:34.952Z,7.78
2022-12-19T16:31:16.289Z,5.03
2022-12-19T16:33:43.040Z,7.53
2022-12-19T16:36:09.909Z,8.23
2022-12-19T16:38:36.944Z,8.88
2022-12-19T16:41:03.849Z,7.25
2022-12-19T16:43:35.913Z,5.80
2022-12-19T16:46:05.752Z,8.85
2022-12-19T16:48:35.464Z,7.55
2022-12-19T16:51:02.302Z,9.38
2022-12-19T16:53:29.423Z,8.50
2022-12-19T16:55:56.940Z,7.03
2022-12-19T16:58:26.735Z,9.27
2022-12-19T17:00:55.631Z,8.18
2022-12-19T17:03:43.567Z,9.23
2022-12-19T17:06:13.807Z,7.72
2022-12-19T17:08:40.787Z,8.40
2022-12-19T17:11:18.540Z,7.32
2022-12-19T17:13:47.651Z,12.20
2022-12-19T17:16:14.724Z,18.60
2022-12-19T17:18:42.836Z,7.57
2022-12-19T17:21:18.636Z,8.90
2022-12-19T17:23:46.319Z,6.10
2022-12-19T17:26:17.724Z,8.23
2022-12-19T17:28:47.955Z,7.75
2022-12-19T17:31:27.959Z,7.85
2022-12-19T17:33:56.425Z,8.23
2022-12-19T17:36:32.678Z,10.82
2022-12-19T17:39:01.827Z,6.90
2022-12-19T17:41:28.808Z,8.35
2022-12-19T17:43:55.526Z,12.63
2022-12-19T17:46:23.580Z,8.80
2022-12-19T17:48:52.597Z,9.00
2022-12-19T17:51:21.491Z,8.50
2022-12-19T17:53:49.444Z,8.63
2022-12-19T17:56:19.901Z,9.98
2022-12-19T17:58:48.338Z,7.25
2022-12-19T18:01:23.624Z,12.35
2022-12-19T18:03:52.301Z,7.22
2022-12-19T18:06:20.344Z,9.68
2022-12-19T18:08:47.315Z,10.55
2022-12-19T18:11:23.232Z,6.28
2022-12-19T18:13:50.955Z,8.13
2022-12-19T18:16:20.814Z,9.68
2022-12-19T18:18:47.785Z,9.75
2022-12-19T18:21:16.854Z,8.93
2022-12-19T18:23:44.231Z,9.93
2022-12-19T18:26:12.017Z,9.13
2022-12-19T18:28:39.877Z,8.05
2022-12-19T18:31:14.291Z,8.25
2022-12-19T18:33:43.304Z,6.30
2022-12-19T18:36:20.507Z,6.88
2022-12-19T18:38:48.734Z,6.82
2022-12-19T18:41:17.433Z,7.32
2022-12-19T18:43:44.179Z,7.68
2022-12-19T18:46:16.711Z,7.30
2022-12-19T18:48:45.299Z,5.78
2022-12-19T18:51:19.927Z,7.53
2022-12-19T18:53:47.958Z,9.60
2022-12-19T18:56:16.023Z,7.35
2022-12-19T18:58:42.908Z,8.10
2022-12-19T19:01:18.469Z,6.50
2022-12-19T19:03:56.030Z,6.80
2022-12-19T19:06:28.511Z,6.85
2022-12-19T19:08:56.998Z,9.52
2022-12-19T19:11:27.069Z,7.00
2022-12-19T19:13:53.793Z,8.32
2022-12-19T19:16:25.953Z,8.27
2022-12-19T19:18:55.181Z,6.88
2022-12-19T19:21:27.328Z,8.85
2022-12-19T19:24:00.284Z,8.52
2022-12-19T19:26:27.009Z,9.00
2022-12-19T19:28:53.757Z,8.27
2022-12-19T19:31:23.375Z,8.98
2022-12-19T19:33:55.983Z,7.50
2022-12-19T19:36:27.507Z,8.57
2022-12-19T19:38:59.620Z,10.20
2022-12-19T19:41:29.841Z,8.60
2022-12-19T19:43:58.704Z,9.45
2022-12-19T19:46:26.396Z,8.07
2022-12-19T19:48:53.311Z,9.25
2022-12-19T19:51:20.040Z,9.98
2022-12-19T19:53:46.899Z,9.73
2022-12-19T19:56:16.018Z,9.35
2022-12-19T19:58:42.743Z,10.15
2022-12-19T20:01:10.907Z,12.55
2022-12-19T20:03:44.689Z,7.93
2022-12-19T20:06:14.539Z,9.75
2022-12-19T20:08:43.589Z,9.23
2022-12-19T20:11:13.691Z,8.75
2022-12-19T20:13:45.824Z,9.68
2022-12-19T20:16:16.747Z,8.82
2022-12-19T20:18:50.557Z,8.63
2022-12-19T20:21:18.619Z,8.93
2022-12-19T20:23:45.776Z,8.73
2022-12-19T20:26:15.509Z,8.02
2022-12-19T20:28:48.472Z,10.70
2022-12-19T20:31:17.207Z,11.45
2022-12-19T20:33:43.949Z,11.77
2022-12-19T20:36:12.138Z,11.07
2022-12-19T20:38:39.432Z,9.13
2022-12-19T20:41:06.621Z,9.50
2022-12-19T20:43:35.589Z,9.30
2022-12-19T20:46:09.654Z,8.68
2022-12-19T20:48:36.851Z,9.75
2022-12-19T20:51:04.704Z,9.68
2022-12-19T20:53:32.963Z,9.65
2022-12-19T20:56:01.166Z,10.43
2022-12-19T20:58:29.125Z,8.93
2022-12-19T21:00:56.917Z,8.88
2022-12-19T21:03:28.990Z,9.05
2022-12-19T21:05:56.824Z,10.18
2022-12-19T21:08:24.604Z,8.73
2022-12-19T21:10:51.894Z,9.07
2022-12-19T21:13:18.895Z,10.10
2022-12-19T21:15:45.738Z,10.63
2022-12-19T21:18:12.556Z,9.65
2022-12-19T21:20:39.304Z,8.52
2022-12-19T21:23:06.072Z,7.57
2022-12-19T21:25:32.785Z,9.77
2022-12-19T21:27:59.441Z,10.52
2022-12-19T21:30:26.126Z,10.80
2022-12-19T21:32:52.831Z,6.63
2022-12-19T21:35:19.599Z,8.82
2022-12-19T21:37:50.104Z,6.97
2022-12-19T21:40:20.755Z,10.82
2022-12-19T21:42:47.735Z,7.88
2022-12-19T21:45:15.203Z,9.13
2022-12-19T21:47:42.960Z,9.30
2022-12-19T21:50:12.364Z,42.60
2022-12-19T21:52:39.695Z,10.20
2022-12-19T21:55:08.465Z,6.82
2022-12-19T21:57:39.820Z,7.00
2022-12-19T22:00:09.219Z,7.97
2022-12-19T22:02:36.212Z,9.15
2022-12-19T22:05:03.275Z,8.02
2022-12-19T22:07:30.244Z,7.72
2022-12-19T22:09:56.946Z,8.73
2022-12-19T22:12:23.639Z,6.85
2022-12-19T22:14:52.474Z,7.03
2022-12-19T22:17:19.269Z,7.10
2022-12-19T22:19:45.921Z,8.80
2022-12-19T22:22:12.595Z,7.05
2022-12-19T22:24:39.374Z,11.90
2022-12-19T22:27:06.174Z,7.97
2022-12-19T22:29:36.417Z,7.03
2022-12-19T22:32:04.367Z,8.95
2022-12-19T22:34:31.617Z,6.80
2022-12-19T22:36:58.530Z,8.93
2022-12-19T22:39:25.585Z,8.95
2022-12-19T22:41:52.417Z,7.50
2022-12-19T22:44:22.278Z,7.75
2022-12-19T22:46:49.651Z,10.38
2022-12-19T22:49:19.118Z,7.82
2022-12-19T22:51:45.955Z,6.63
2022-12-19T22:54:13.912Z,9.13
2022-12-19T22:56:42.022Z,8.13
2022-12-19T22:59:10.916Z,6.68
2022-12-19T23:01:40.817Z,10.60
2022-12-19T23:04:09.349Z,9.05
2022-12-19T23:06:37.676Z,8.57
2022-12-19T23:09:06.968Z,9.13
2022-12-19T23:11:39.184Z,7.90
2022-12-19T23:14:07.732Z,8.57
2022-12-19T23:16:34.981Z,6.95
2022-12-19T23:19:01.750Z,5.82
2022-12-19T23:21:28.598Z,7.05
2022-12-19T23:23:56.215Z,10.57
2022-12-19T23:26:28.902Z,7.75
2022-12-19T23:28:57.991Z,5.75
2022-12-19T23:31:25.499Z,5.72
2022-12-19T23:33:52.268Z,8.57
2022-12-19T23:36:38.198Z,6.72
2022-12-19T23:39:06.646Z,5.93
2022-12-19T23:41:33.501Z,9.60
2022-12-19T23:44:00.253Z,9.40
2022-12-19T23:46:27.827Z,10.13
2022-12-19T23:48:55.143Z,7.72
2022-12-19T23:51:25.106Z,5.47
2022-12-19T23:53:53.233Z,9.57
2022-12-19T23:56:25.927Z,6.38
2022-12-19T23:58:52.691Z,7.40
